createdAt,value
2016-07-04T00:00:57.371Z,19.51
2016-07-04T00:01:57.374Z,19.36
2016-07-04T00:02:57.416Z,19.45
2016-07-04T00:03:57.430Z,19.48
2016-07-04T00:04:57.471Z,19.44
2016-07-04T00:05:57.482Z,19.31
2016-07-04T00:06:57.514Z,19.34
2016-07-04T00:07:57.533Z,19.3
2016-07-04T00:08:57.564Z,19.3
2016-07-04T00:09:57.589Z,19.3
2016-07-04T00:10:57.605Z,19.3
2016-07-04T00:11:57.643Z,19.27
2016-07-04T00:12:57.662Z,19.29
2016-07-04T00:13:57.692Z,19.29
2016-07-04T00:14:57.716Z,19.3
2016-07-04T00:15:57.757Z,19.21
2016-07-04T00:16:57.776Z,19.31
2016-07-04T00:17:57.795Z,19.21
2016-07-04T00:18:58.425Z,19.14
2016-07-04T00:19:57.842Z,19.22
2016-07-04T00:20:58.485Z,19.22
2016-07-04T00:21:57.889Z,19.18
2016-07-04T00:22:57.911Z,19.12
2016-07-04T00:23:57.930Z,19.26
2016-07-04T00:24:57.955Z,19.11
2016-07-04T00:25:57.978Z,19.12
2016-07-04T00:26:58.004Z,19.07
2016-07-04T00:27:58.029Z,19.08
2016-07-04T00:28:58.052Z,19.15
2016-07-04T00:29:58.080Z,19.08
2016-07-04T00:30:58.113Z,19.11
2016-07-04T00:31:58.138Z,19.09
2016-07-04T00:32:58.161Z,18.96
2016-07-04T00:33:58.179Z,18.98
2016-07-04T00:34:58.207Z,18.92
2016-07-04T00:35:58.237Z,19.07
2016-07-04T00:36:58.256Z,18.95
2016-07-04T00:37:58.278Z,18.98
2016-07-04T00:38:58.308Z,18.93
2016-07-04T00:39:58.340Z,18.9
2016-07-04T00:40:58.361Z,18.95
2016-07-04T00:41:58.389Z,18.98
2016-07-04T00:42:58.409Z,19.07
2016-07-04T00:43:58.433Z,19.07
2016-07-04T00:44:58.458Z,18.88
2016-07-04T00:45:58.477Z,18.9
2016-07-04T00:46:58.512Z,18.93
2016-07-04T00:47:58.537Z,18.95
2016-07-04T00:48:58.558Z,18.9
2016-07-04T00:49:58.580Z,18.86
2016-07-04T00:50:58.608Z,18.8
2016-07-04T00:51:58.811Z,18.84
2016-07-04T00:52:58.820Z,18.83
2016-07-04T00:53:58.794Z,18.83
2016-07-04T00:54:58.804Z,18.86
2016-07-04T00:55:58.726Z,18.8
2016-07-04T00:56:58.753Z,18.8
2016-07-04T00:57:58.787Z,18.8
2016-07-04T00:58:58.801Z,18.84
2016-07-04T00:59:58.852Z,18.75
2016-07-04T01:00:58.941Z,18.78
2016-07-04T01:01:58.879Z,18.78
2016-07-04T01:02:58.902Z,18.78
2016-07-04T01:03:58.927Z,18.77
2016-07-04T01:04:58.950Z,18.77
2016-07-04T01:05:59.223Z,18.75
2016-07-04T01:06:59.152Z,18.73
2016-07-04T01:07:59.287Z,18.78
2016-07-04T01:08:59.040Z,18.7
2016-07-04T01:09:59.298Z,18.7
2016-07-04T01:10:59.099Z,18.66
2016-07-04T01:11:59.351Z,18.7
2016-07-04T01:12:59.141Z,18.62
2016-07-04T01:13:59.176Z,18.65
2016-07-04T01:14:59.196Z,18.59
2016-07-04T01:15:59.891Z,18.65
2016-07-04T01:16:59.240Z,18.59
2016-07-04T01:17:59.267Z,18.56
2016-07-04T01:18:59.281Z,18.56
2016-07-04T01:19:59.405Z,18.65
2016-07-04T01:20:59.429Z,18.62
2016-07-04T01:21:59.587Z,18.53
2016-07-04T01:22:59.453Z,18.59
2016-07-04T01:23:59.614Z,18.56
2016-07-04T01:24:59.618Z,18.49
2016-07-04T01:25:59.626Z,18.56
2016-07-04T01:26:59.636Z,18.53
2016-07-04T01:27:59.645Z,18.5
2016-07-04T01:28:59.654Z,18.53
2016-07-04T01:29:59.653Z,18.45
2016-07-04T01:31:00.203Z,18.45
2016-07-04T01:31:59.711Z,18.45
2016-07-04T01:32:59.724Z,18.47
2016-07-04T01:33:59.718Z,18.47
2016-07-04T01:34:59.726Z,18.45
2016-07-04T01:35:59.799Z,18.5
2016-07-04T01:36:59.806Z,18.38
2016-07-04T01:37:59.844Z,18.4
2016-07-04T01:38:59.840Z,18.41
2016-07-04T01:39:59.848Z,18.37
2016-07-04T01:40:59.853Z,18.4
2016-07-04T01:41:59.869Z,18.35
2016-07-04T01:42:59.870Z,18.33
2016-07-04T01:43:59.888Z,18.41
2016-07-04T01:44:59.922Z,18.28
2016-07-04T01:45:59.953Z,18.26
2016-07-04T01:46:59.965Z,18.34
2016-07-04T01:47:59.996Z,18.28
2016-07-04T01:49:00.019Z,18.34
2016-07-04T01:50:00.045Z,18.29
2016-07-04T01:51:00.682Z,18.31
2016-07-04T01:52:00.085Z,18.29
2016-07-04T01:53:00.113Z,18.28
2016-07-04T01:54:00.135Z,18.26
2016-07-04T01:55:00.161Z,18.23
2016-07-04T01:56:00.181Z,18.28
2016-07-04T01:57:00.203Z,18.2
2016-07-04T01:58:00.231Z,18.23
2016-07-04T01:59:00.260Z,18.16
2016-07-04T02:00:00.281Z,18.18
2016-07-04T02:01:00.300Z,18.18
2016-07-04T02:02:00.335Z,18.2
2016-07-04T02:03:00.353Z,18.1
2016-07-04T02:04:00.389Z,18.23
2016-07-04T02:05:00.470Z,18.11
2016-07-04T02:06:00.489Z,18.18
2016-07-04T02:07:00.629Z,18.18
2016-07-04T02:08:00.667Z,18.11
2016-07-04T02:09:00.721Z,18.11
2016-07-04T02:10:00.747Z,18.16
2016-07-04T02:11:00.698Z,18.01
2016-07-04T02:12:00.662Z,18.07
2016-07-04T02:13:00.800Z,18
2016-07-04T02:14:00.711Z,18.05
2016-07-04T02:15:00.719Z,18.1
2016-07-04T02:16:00.930Z,18.07
2016-07-04T02:17:00.885Z,18.15
2016-07-04T02:18:00.809Z,18.13
2016-07-04T02:19:00.740Z,18.05
2016-07-04T02:20:00.773Z,18.04
2016-07-04T02:21:00.790Z,18.07
2016-07-04T02:22:00.821Z,18
2016-07-04T02:23:01.040Z,18.07
2016-07-04T02:24:00.859Z,18.01
2016-07-04T02:25:00.887Z,18.01
2016-07-04T02:26:00.915Z,17.98
2016-07-04T02:27:00.934Z,17.97
2016-07-04T02:28:00.960Z,18.03
2016-07-04T02:29:00.982Z,18.05
2016-07-04T02:30:01.014Z,17.97
2016-07-04T02:31:01.029Z,17.95
2016-07-04T02:32:01.066Z,17.98
2016-07-04T02:33:01.078Z,17.9
2016-07-04T02:34:01.103Z,17.94
2016-07-04T02:35:01.124Z,17.9
2016-07-04T02:36:01.153Z,17.87
2016-07-04T02:37:01.177Z,17.9
2016-07-04T02:38:01.207Z,17.9
2016-07-04T02:39:01.227Z,17.87
2016-07-04T02:40:01.249Z,17.89
2016-07-04T02:41:01.265Z,17.87
2016-07-04T02:42:01.281Z,17.87
2016-07-04T02:43:01.318Z,17.83
2016-07-04T02:44:01.347Z,17.83
2016-07-04T02:45:01.368Z,17.8
2016-07-04T02:46:01.383Z,17.86
2016-07-04T02:47:01.409Z,17.72
2016-07-04T02:48:01.427Z,17.85
2016-07-04T02:49:01.454Z,17.76
2016-07-04T02:50:01.481Z,17.78
2016-07-04T02:51:01.515Z,17.76
2016-07-04T02:52:01.547Z,17.78
2016-07-04T02:53:01.554Z,17.8
2016-07-04T02:54:01.574Z,17.74
2016-07-04T02:55:01.603Z,17.7
2016-07-04T02:56:01.631Z,17.71
2016-07-04T02:57:01.651Z,17.71
2016-07-04T02:58:01.677Z,17.76
2016-07-04T02:59:01.681Z,17.64
2016-07-04T03:00:01.722Z,17.71
2016-07-04T03:01:01.739Z,17.71
2016-07-04T03:02:01.762Z,17.78
2016-07-04T03:03:01.785Z,17.76
2016-07-04T03:04:01.800Z,17.72
2016-07-04T03:05:01.836Z,17.67
2016-07-04T03:06:01.860Z,17.67
2016-07-04T03:07:01.890Z,17.72
2016-07-04T03:08:01.905Z,17.68
2016-07-04T03:09:01.931Z,17.68
2016-07-04T03:10:01.959Z,17.67
2016-07-04T03:11:01.979Z,17.67
2016-07-04T03:12:02.005Z,17.67
2016-07-04T03:13:02.021Z,17.65
2016-07-04T03:14:02.046Z,17.67
2016-07-04T03:15:02.066Z,17.65
2016-07-04T03:16:02.084Z,17.65
2016-07-04T03:17:02.140Z,17.6
2016-07-04T03:18:02.139Z,17.65
2016-07-04T03:19:02.158Z,17.65
2016-07-04T03:20:02.184Z,17.6
2016-07-04T03:21:02.207Z,17.54
2016-07-04T03:22:02.237Z,17.68
2016-07-04T03:23:02.251Z,17.59
2016-07-04T03:24:02.283Z,17.57
2016-07-04T03:25:02.301Z,17.59
2016-07-04T03:26:02.328Z,17.54
2016-07-04T03:27:02.356Z,17.6
2016-07-04T03:28:02.386Z,17.51
2016-07-04T03:29:02.396Z,17.51
2016-07-04T03:30:02.433Z,17.6
2016-07-04T03:31:02.449Z,17.57
2016-07-04T03:32:02.470Z,17.59
2016-07-04T03:33:02.493Z,17.57
2016-07-04T03:34:03.131Z,17.59
2016-07-04T03:35:02.536Z,17.52
2016-07-04T03:36:02.562Z,17.54
2016-07-04T03:37:02.643Z,17.6
2016-07-04T03:38:02.608Z,17.63
2016-07-04T03:39:02.633Z,17.57
2016-07-04T03:40:02.658Z,17.57
2016-07-04T03:41:02.681Z,17.49
2016-07-04T03:42:02.707Z,17.59
2016-07-04T03:43:02.727Z,17.57
2016-07-04T03:44:02.764Z,17.57
2016-07-04T03:45:02.869Z,17.57
2016-07-04T03:46:03.409Z,17.51
2016-07-04T03:47:02.822Z,17.49
2016-07-04T03:48:02.853Z,17.51
2016-07-04T03:49:02.864Z,17.54
2016-07-04T03:50:02.893Z,17.52
2016-07-04T03:51:02.916Z,17.54
2016-07-04T03:52:02.957Z,17.56
2016-07-04T03:53:02.962Z,17.6
2016-07-04T03:54:03.043Z,17.54
2016-07-04T03:55:03.011Z,17.6
2016-07-04T03:56:03.037Z,17.51
2016-07-04T03:57:03.049Z,17.54
2016-07-04T03:58:03.083Z,17.63
2016-07-04T03:59:03.106Z,17.51
2016-07-04T04:00:03.128Z,17.6
2016-07-04T04:01:03.155Z,17.6
2016-07-04T04:02:03.167Z,17.63
2016-07-04T04:03:03.200Z,17.6
2016-07-04T04:04:03.216Z,17.6
2016-07-04T04:05:03.244Z,17.57
2016-07-04T04:06:03.273Z,17.51
2016-07-04T04:07:03.381Z,17.54
2016-07-04T04:08:03.387Z,17.59
2016-07-04T04:09:03.395Z,17.56
2016-07-04T04:10:03.550Z,17.63
2016-07-04T04:11:03.544Z,17.59
2016-07-04T04:12:03.553Z,17.64
2016-07-04T04:13:03.551Z,17.65
2016-07-04T04:14:03.556Z,17.52
2016-07-04T04:15:03.667Z,17.59
2016-07-04T04:16:03.574Z,17.63
2016-07-04T04:17:03.713Z,17.65
2016-07-04T04:18:03.734Z,17.64
2016-07-04T04:19:03.732Z,17.65
2016-07-04T04:20:03.756Z,17.59
2016-07-04T04:21:03.748Z,17.65
2016-07-04T04:22:03.757Z,17.56
2016-07-04T04:23:03.753Z,17.68
2016-07-04T04:24:03.758Z,17.64
2016-07-04T04:25:03.762Z,17.59
2016-07-04T04:26:03.783Z,17.67
2016-07-04T04:27:03.777Z,17.6
2016-07-04T04:28:03.791Z,17.67
2016-07-04T04:29:03.818Z,17.65
2016-07-04T04:30:04.294Z,17.65
2016-07-04T04:31:03.855Z,17.7
2016-07-04T04:32:04.495Z,17.67
2016-07-04T04:33:03.903Z,17.65
2016-07-04T04:34:04.563Z,17.7
2016-07-04T04:35:03.967Z,17.68
2016-07-04T04:36:03.976Z,17.74
2016-07-04T04:37:04.003Z,17.7
2016-07-04T04:38:04.019Z,17.7
2016-07-04T04:39:04.041Z,17.76
2016-07-04T04:40:04.072Z,17.7
2016-07-04T04:41:04.089Z,17.8
2016-07-04T04:42:04.164Z,17.68
2016-07-04T04:43:04.141Z,17.71
2016-07-04T04:44:04.150Z,17.68
2016-07-04T04:45:04.178Z,17.71
2016-07-04T04:46:04.204Z,17.74
2016-07-04T04:47:04.230Z,17.72
2016-07-04T04:48:04.267Z,17.76
2016-07-04T04:49:04.286Z,17.78
2016-07-04T04:50:04.310Z,17.78
2016-07-04T04:51:04.323Z,17.74
2016-07-04T04:52:04.354Z,17.72
2016-07-04T04:53:05.032Z,17.76
2016-07-04T04:54:04.406Z,17.74
2016-07-04T04:55:04.423Z,17.76
2016-07-04T04:56:04.455Z,17.87
2016-07-04T04:57:04.463Z,17.8
2016-07-04T04:58:04.493Z,17.82
2016-07-04T04:59:04.519Z,17.86
2016-07-04T05:00:04.541Z,17.85
2016-07-04T05:01:04.557Z,17.86
2016-07-04T05:02:04.590Z,17.87
2016-07-04T05:03:04.612Z,17.8
2016-07-04T05:04:04.655Z,17.94
2016-07-04T05:05:04.652Z,17.89
2016-07-04T05:06:04.683Z,17.89
2016-07-04T05:07:04.706Z,17.9
2016-07-04T05:08:04.731Z,17.92
2016-07-04T05:09:04.750Z,17.97
2016-07-04T05:10:04.777Z,18.04
2016-07-04T05:11:04.797Z,17.98
2016-07-04T05:12:04.826Z,18
2016-07-04T05:13:04.845Z,17.98
2016-07-04T05:14:04.875Z,18.03
2016-07-04T05:15:04.891Z,17.97
2016-07-04T05:16:04.943Z,18.03
2016-07-04T05:17:04.934Z,18.01
2016-07-04T05:18:04.966Z,18.13
2016-07-04T05:19:04.988Z,18.04
2016-07-04T05:20:05.018Z,18.03
2016-07-04T05:21:05.032Z,18.04
2016-07-04T05:22:05.054Z,18.05
2016-07-04T05:23:05.079Z,18.07
2016-07-04T05:24:05.109Z,18.08
2016-07-04T05:25:05.130Z,18.01
2016-07-04T05:26:05.756Z,18.04
2016-07-04T05:27:05.167Z,18.2
2016-07-04T05:28:05.192Z,18.16
2016-07-04T05:29:05.215Z,18.15
2016-07-04T05:30:05.257Z,18.15
2016-07-04T05:31:05.269Z,18.18
2016-07-04T05:32:05.299Z,18.19
2016-07-04T05:33:05.313Z,18.22
2016-07-04T05:34:05.337Z,18.2
2016-07-04T05:35:06.020Z,18.18
2016-07-04T05:36:06.637Z,18.22
2016-07-04T05:37:06.278Z,18.2
2016-07-04T05:38:06.224Z,18.18
2016-07-04T05:39:05.542Z,18.18
2016-07-04T05:40:06.104Z,18.34
2016-07-04T05:41:05.495Z,18.29
2016-07-04T05:42:05.511Z,18.28
2016-07-04T05:43:05.570Z,18.34
2016-07-04T05:44:05.567Z,18.28
2016-07-04T05:45:06.203Z,18.34
2016-07-04T05:46:05.615Z,18.33
2016-07-04T05:47:05.627Z,18.38
2016-07-04T05:48:05.841Z,18.33
2016-07-04T05:49:05.740Z,18.43
2016-07-04T05:50:05.709Z,18.35
2016-07-04T05:51:05.728Z,18.44
2016-07-04T05:52:05.751Z,18.45
2016-07-04T05:53:05.961Z,18.45
2016-07-04T05:54:05.814Z,18.5
2016-07-04T05:55:05.835Z,18.43
2016-07-04T05:56:05.863Z,18.49
2016-07-04T05:57:05.878Z,18.5
2016-07-04T05:58:05.894Z,18.47
2016-07-04T05:59:06.588Z,18.53
2016-07-04T06:00:05.957Z,18.55
2016-07-04T06:01:05.986Z,18.58
2016-07-04T06:02:06.132Z,18.59
2016-07-04T06:03:06.022Z,18.52
2016-07-04T06:04:06.038Z,18.59
2016-07-04T06:05:06.205Z,18.58
2016-07-04T06:06:06.095Z,18.59
2016-07-04T06:07:06.114Z,18.58
2016-07-04T06:08:06.135Z,18.56
2016-07-04T06:09:06.161Z,18.58
2016-07-04T06:10:07.624Z,18.68
2016-07-04T06:11:06.211Z,18.73
2016-07-04T06:12:06.226Z,18.74
2016-07-04T06:13:06.242Z,18.71
2016-07-04T06:14:07.119Z,18.75
2016-07-04T06:15:06.305Z,18.78
2016-07-04T06:16:06.327Z,18.8
2016-07-04T06:17:06.341Z,18.78
2016-07-04T06:18:06.367Z,18.83
2016-07-04T06:19:06.391Z,18.84
2016-07-04T06:20:06.426Z,18.81
2016-07-04T06:21:06.507Z,18.9
2016-07-04T06:22:06.474Z,18.8
2016-07-04T06:23:06.502Z,18.89
2016-07-04T06:24:06.518Z,18.88
2016-07-04T06:25:07.282Z,18.84
2016-07-04T06:26:06.568Z,18.93
2016-07-04T06:27:06.587Z,18.96
2016-07-04T06:28:06.616Z,19.02
2016-07-04T06:29:06.631Z,18.96
2016-07-04T06:30:06.667Z,19
2016-07-04T06:31:06.680Z,19.07
2016-07-04T06:32:06.709Z,19.04
2016-07-04T06:33:07.345Z,19.04
2016-07-04T06:34:06.749Z,19.12
2016-07-04T06:35:06.782Z,19.07
2016-07-04T06:36:06.803Z,19.12
2016-07-04T06:37:06.825Z,19.14
2016-07-04T06:38:06.854Z,19.16
2016-07-04T06:39:07.490Z,19.21
2016-07-04T06:40:07.656Z,19.26
2016-07-04T06:41:06.928Z,19.34
2016-07-04T06:42:06.945Z,19.21
2016-07-04T06:43:06.979Z,19.3
2016-07-04T06:44:06.986Z,19.27
2016-07-04T06:45:07.025Z,19.31
2016-07-04T06:46:07.041Z,19.29
2016-07-04T06:47:07.060Z,19.41
2016-07-04T06:48:07.082Z,19.41
2016-07-04T06:49:07.107Z,19.47
2016-07-04T06:50:07.181Z,19.4
2016-07-04T06:51:07.170Z,19.47
2016-07-04T06:52:07.800Z,19.56
2016-07-04T06:53:07.213Z,19.55
2016-07-04T06:54:08.710Z,19.51
2016-07-04T06:55:07.266Z,19.56
2016-07-04T06:56:07.288Z,19.56
2016-07-04T06:57:07.312Z,19.59
2016-07-04T06:58:07.335Z,19.55
2016-07-04T06:59:07.363Z,19.69
2016-07-04T07:00:07.381Z,19.67
2016-07-04T07:01:07.402Z,19.71
2016-07-04T07:02:07.435Z,19.79
2016-07-04T07:03:07.454Z,19.7
2016-07-04T07:04:07.476Z,19.71
2016-07-04T07:05:07.505Z,19.84
2016-07-04T07:06:07.532Z,19.86
2016-07-04T07:07:07.557Z,19.84
2016-07-04T07:08:07.572Z,19.88
2016-07-04T07:09:07.607Z,19.91
2016-07-04T07:10:07.684Z,19.95
2016-07-04T07:11:07.658Z,19.99
2016-07-04T07:12:07.672Z,20.03
2016-07-04T07:13:07.710Z,20.02
2016-07-04T07:14:08.301Z,20
2016-07-04T07:15:07.792Z,20
2016-07-04T07:16:07.774Z,20.02
2016-07-04T07:17:07.813Z,20.21
2016-07-04T07:18:07.822Z,20.24
2016-07-04T07:19:07.847Z,20.16
2016-07-04T07:20:07.867Z,20.16
2016-07-04T07:21:07.899Z,20.28
2016-07-04T07:22:07.914Z,20.16
2016-07-04T07:23:07.945Z,20.24
2016-07-04T07:24:07.970Z,20.32
2016-07-04T07:25:07.996Z,20.31
2016-07-04T07:26:08.035Z,20.43
2016-07-04T07:27:08.050Z,20.37
2016-07-04T07:28:08.064Z,20.47
2016-07-04T07:29:08.101Z,20.48
2016-07-04T07:30:08.117Z,20.47
2016-07-04T07:31:08.157Z,20.48
2016-07-04T07:32:09.421Z,20.56
2016-07-04T07:33:08.224Z,20.62
2016-07-04T07:34:08.224Z,20.63
2016-07-04T07:35:08.240Z,20.69
2016-07-04T07:36:08.275Z,20.75
2016-07-04T07:37:08.298Z,20.87
2016-07-04T07:38:08.314Z,20.84
2016-07-04T07:39:08.394Z,20.95
2016-07-04T07:40:08.375Z,21
2016-07-04T07:41:08.393Z,21.06
2016-07-04T07:42:08.458Z,21.15
2016-07-04T07:43:08.440Z,21.21
2016-07-04T07:44:09.076Z,21.22
2016-07-04T07:45:08.508Z,21.25
2016-07-04T07:46:08.511Z,21.3
2016-07-04T07:47:08.534Z,21.48
2016-07-04T07:48:08.562Z,21.48
2016-07-04T07:49:08.586Z,21.55
2016-07-04T07:50:08.630Z,21.62
2016-07-04T07:51:08.634Z,21.69
2016-07-04T07:52:08.695Z,21.77
2016-07-04T07:53:08.689Z,21.82
2016-07-04T07:54:08.714Z,21.91
2016-07-04T07:55:08.736Z,21.99
2016-07-04T07:56:09.376Z,22.04
2016-07-04T07:57:08.813Z,22.18
2016-07-04T07:58:08.817Z,22.23
2016-07-04T07:59:08.838Z,22.3
2016-07-04T08:00:08.857Z,22.44
2016-07-04T08:01:08.892Z,22.48
2016-07-04T08:02:08.909Z,22.41
2016-07-04T08:03:09.015Z,22.48
2016-07-04T08:04:08.972Z,22.6
2016-07-04T08:05:08.993Z,22.63
2016-07-04T08:06:09.008Z,22.68
2016-07-04T08:07:09.039Z,22.72
2016-07-04T08:08:09.682Z,22.76
2016-07-04T08:09:09.088Z,22.75
2016-07-04T08:10:09.129Z,22.94
2016-07-04T08:11:09.165Z,22.9
2016-07-04T08:12:09.169Z,22.91
2016-07-04T08:13:09.195Z,22.96
2016-07-04T08:14:09.216Z,23.02
2016-07-04T08:15:09.877Z,23.09
2016-07-04T08:16:09.284Z,23.18
2016-07-04T08:17:09.293Z,23.12
2016-07-04T08:18:09.331Z,23.24
2016-07-04T08:19:09.952Z,23.23
2016-07-04T08:20:10.004Z,23.18
2016-07-04T08:21:09.466Z,23.28
2016-07-04T08:22:09.419Z,23.39
2016-07-04T08:23:09.443Z,23.37
2016-07-04T08:24:09.471Z,23.4
2016-07-04T08:25:09.505Z,23.47
2016-07-04T08:26:09.665Z,23.5
2016-07-04T08:27:09.543Z,23.58
2016-07-04T08:28:09.576Z,23.58
2016-07-04T08:29:10.228Z,23.56
2016-07-04T08:30:10.248Z,23.65
2016-07-04T08:31:09.637Z,23.68
2016-07-04T08:32:09.683Z,23.71
2016-07-04T08:33:10.320Z,23.8
2016-07-04T08:34:09.736Z,23.81
2016-07-04T08:35:10.362Z,23.91
2016-07-04T08:36:09.778Z,23.92
2016-07-04T08:37:09.808Z,24.01
2016-07-04T08:38:09.836Z,24.18
2016-07-04T08:39:09.882Z,24.18
2016-07-04T08:40:09.892Z,24.24
2016-07-04T08:41:09.916Z,24.28
2016-07-04T08:42:09.943Z,24.29
2016-07-04T08:43:09.966Z,24.33
2016-07-04T08:44:09.984Z,24.45
2016-07-04T08:45:43.267Z,24.53
2016-07-04T08:46:24.310Z,24.55
2016-07-04T08:47:48.907Z,24.69
2016-07-04T08:48:16.818Z,24.6
2016-07-04T08:49:17.548Z,24.65
2016-07-04T08:50:37.921Z,24.76
2016-07-04T08:51:43.865Z,24.85
2016-07-04T08:52:30.513Z,24.85
2016-07-04T08:54:16.972Z,25.01
2016-07-04T08:55:17.268Z,25.06
2016-07-04T08:56:32.024Z,25.14
2016-07-04T08:57:17.049Z,25.17
2016-07-04T08:58:17.099Z,25.25
2016-07-04T08:59:17.144Z,25.29
2016-07-04T09:26:00.578Z,26.73
2016-07-04T09:27:00.618Z,26.83
2016-07-04T09:28:00.752Z,26.8
2016-07-04T09:29:00.781Z,26.88
2016-07-04T09:30:00.789Z,26.89
2016-07-04T09:31:00.797Z,26.9
2016-07-04T09:32:00.818Z,26.95
2016-07-04T09:33:00.804Z,26.95
2016-07-04T09:34:00.826Z,26.93
2016-07-04T09:35:00.822Z,26.95
2016-07-04T09:36:00.975Z,26.9
2016-07-04T09:37:00.997Z,26.96
2016-07-04T09:38:00.997Z,26.9
2016-07-04T09:39:01.038Z,27.03
2016-07-04T09:40:01.058Z,27.03
2016-07-04T09:41:01.061Z,27
2016-07-04T09:42:01.068Z,27.1
2016-07-04T09:43:01.070Z,27.12
2016-07-04T09:44:01.103Z,27.17
2016-07-04T09:45:01.107Z,27.25
2016-07-04T09:46:01.160Z,27.27
2016-07-04T09:47:01.159Z,27.39
2016-07-04T09:48:01.207Z,27.47
2016-07-04T09:49:01.218Z,27.42
2016-07-04T09:50:01.275Z,27.54
2016-07-04T09:51:01.294Z,27.64
2016-07-04T09:52:01.305Z,27.7
2016-07-04T09:53:01.357Z,27.75
2016-07-04T09:54:01.363Z,27.87
2016-07-04T09:55:01.413Z,27.95
2016-07-04T09:56:01.468Z,27.96
2016-07-04T09:57:01.472Z,28.01
2016-07-04T09:58:01.493Z,28.02
2016-07-04T09:59:01.528Z,28.05
2016-07-04T10:00:01.546Z,28.07
2016-07-04T10:01:02.196Z,28.04
2016-07-04T10:02:01.609Z,28
2016-07-04T10:03:01.663Z,28.02
2016-07-04T10:04:01.701Z,28.07
2016-07-04T10:05:02.314Z,28.17
2016-07-04T10:06:01.720Z,28.19
2016-07-04T10:07:01.758Z,28.23
2016-07-04T10:08:01.781Z,28.26
2016-07-04T10:09:01.821Z,28.27
2016-07-04T10:10:01.853Z,28.38
2016-07-04T10:11:01.882Z,28.39
2016-07-04T10:12:01.933Z,28.44
2016-07-04T10:13:01.932Z,28.49
2016-07-04T10:14:01.967Z,28.49
2016-07-04T10:15:01.981Z,28.64
2016-07-04T10:16:02.008Z,28.64
2016-07-04T10:17:02.040Z,28.75
2016-07-04T10:18:02.065Z,28.78
2016-07-04T10:19:02.110Z,28.81
2016-07-04T10:20:02.145Z,28.98
2016-07-04T10:21:02.157Z,28.94
2016-07-04T10:22:02.200Z,29.04
2016-07-04T10:23:02.215Z,28.98
2016-07-04T10:24:02.254Z,29.08
2016-07-04T10:25:02.290Z,29.13
2016-07-04T10:26:02.325Z,29.24
2016-07-04T10:27:02.341Z,29.27
2016-07-04T10:28:02.368Z,29.45
2016-07-04T10:29:02.408Z,29.51
2016-07-04T10:30:02.437Z,29.53
2016-07-04T10:31:02.461Z,29.6
2016-07-04T10:32:02.490Z,29.72
2016-07-04T10:33:02.527Z,29.75
2016-07-04T10:34:02.562Z,29.86
2016-07-04T10:35:02.580Z,29.95
2016-07-04T10:36:02.629Z,30
2016-07-04T10:37:02.650Z,30.02
2016-07-04T10:38:02.687Z,30.08
2016-07-04T10:39:02.719Z,30.18
2016-07-04T10:40:02.745Z,30.13
2016-07-04T10:41:03.393Z,30.16
2016-07-04T10:42:02.800Z,30.24
2016-07-04T10:43:02.842Z,30.13
2016-07-04T10:44:02.870Z,30.19
2016-07-04T10:45:02.901Z,30.16
2016-07-04T10:46:02.922Z,30.15
2016-07-04T10:47:02.953Z,30.16
2016-07-04T10:48:02.984Z,30.13
2016-07-04T10:49:03.014Z,30.08
2016-07-04T10:50:03.041Z,30.16
2016-07-04T10:51:03.083Z,30.06
2016-07-04T10:52:03.113Z,30.12
2016-07-04T10:53:03.146Z,30.05
2016-07-04T10:54:03.179Z,30.05
2016-07-04T10:55:03.202Z,30
2016-07-04T10:56:03.257Z,30
2016-07-04T10:57:03.276Z,30.02
2016-07-04T10:58:03.301Z,29.95
2016-07-04T10:59:03.326Z,29.97
2016-07-04T11:00:04.104Z,30.03
2016-07-04T11:01:03.402Z,30.08
2016-07-04T11:02:03.424Z,30.02
2016-07-04T11:03:03.449Z,30.02
2016-07-04T11:04:03.486Z,30.06
2016-07-04T11:05:03.509Z,30.03
2016-07-04T11:06:03.542Z,30.09
2016-07-04T11:07:03.570Z,30.02
2016-07-04T11:08:03.600Z,29.95
2016-07-04T11:09:04.338Z,29.95
2016-07-04T11:10:03.726Z,29.97
2016-07-04T11:11:03.757Z,29.91
2016-07-04T11:12:03.932Z,29.94
2016-07-04T11:13:03.941Z,29.86
2016-07-04T11:14:03.953Z,29.87
2016-07-04T11:15:03.957Z,29.82
2016-07-04T11:16:03.964Z,29.84
2016-07-04T11:17:03.971Z,29.88
2016-07-04T11:18:04.023Z,29.73
2016-07-04T11:19:04.024Z,29.72
2016-07-04T11:20:04.032Z,29.73
2016-07-04T11:21:04.104Z,29.69
2016-07-04T11:22:04.110Z,29.63
2016-07-04T11:23:04.142Z,29.66
2016-07-04T11:24:04.144Z,29.6
2016-07-04T11:25:04.155Z,29.53
2016-07-04T11:26:04.280Z,29.59
2016-07-04T11:27:04.207Z,29.5
2016-07-04T11:28:04.242Z,29.56
2016-07-04T11:29:04.267Z,29.54
2016-07-04T11:30:04.311Z,29.5
2016-07-04T11:31:04.326Z,29.5
2016-07-04T11:32:04.367Z,29.49
2016-07-04T11:33:04.394Z,29.5
2016-07-04T11:34:04.418Z,29.56
2016-07-04T11:35:04.456Z,29.56
2016-07-04T11:36:04.489Z,29.53
2016-07-04T11:37:05.133Z,29.6
2016-07-04T11:38:04.539Z,29.57
2016-07-04T11:39:04.586Z,29.57
2016-07-04T11:40:04.630Z,29.71
2016-07-04T11:41:04.643Z,29.71
2016-07-04T11:42:04.673Z,29.82
2016-07-04T11:43:04.708Z,29.76
2016-07-04T11:44:04.739Z,29.95
2016-07-04T11:45:04.766Z,29.93
2016-07-04T11:46:04.803Z,30
2016-07-04T11:47:04.822Z,30
2016-07-04T11:48:04.859Z,30.09
2016-07-04T11:49:04.891Z,30.13
2016-07-04T11:50:04.927Z,30.15
2016-07-04T11:51:04.954Z,30.28
2016-07-04T11:52:04.986Z,30.32
2016-07-04T11:53:05.025Z,30.48
2016-07-04T11:54:05.048Z,30.53
2016-07-04T11:55:05.085Z,30.57
2016-07-04T11:56:05.734Z,30.62
2016-07-04T11:57:05.149Z,30.69
2016-07-04T11:58:05.172Z,30.69
2016-07-04T11:59:05.220Z,30.73
2016-07-04T12:00:05.246Z,30.75
2016-07-04T12:01:05.282Z,30.81
2016-07-04T12:02:05.314Z,30.66
2016-07-04T12:03:05.352Z,30.69
2016-07-04T12:04:05.371Z,30.69
2016-07-04T12:05:05.398Z,30.65
2016-07-04T12:06:05.439Z,30.59
2016-07-04T12:07:05.464Z,30.73
2016-07-04T12:08:05.503Z,30.68
2016-07-04T12:09:05.546Z,30.69
2016-07-04T12:10:05.563Z,30.7
2016-07-04T12:11:05.601Z,30.7
2016-07-04T12:12:05.632Z,30.72
2016-07-04T12:13:05.663Z,30.68
2016-07-04T12:14:05.682Z,30.84
2016-07-04T12:15:06.460Z,30.87
2016-07-04T12:16:05.870Z,30.84
2016-07-04T12:17:06.045Z,30.87
2016-07-04T12:18:06.671Z,30.85
2016-07-04T12:19:06.659Z,30.88
2016-07-04T12:20:06.068Z,30.84
2016-07-04T12:21:06.685Z,30.84
2016-07-04T12:22:06.111Z,30.84
2016-07-04T12:23:06.122Z,30.9
2016-07-04T12:24:06.133Z,30.87
2016-07-04T12:25:06.139Z,30.9
2016-07-04T12:26:06.154Z,30.9
2016-07-04T12:27:06.162Z,30.9
2016-07-04T12:28:06.233Z,30.92
2016-07-04T12:29:06.256Z,30.85
2016-07-04T12:30:06.883Z,30.87
2016-07-04T12:31:06.278Z,30.85
2016-07-04T12:32:06.289Z,30.87
2016-07-04T12:33:06.308Z,30.9
2016-07-04T12:34:06.343Z,30.97
2016-07-04T12:35:06.370Z,31.12
2016-07-04T12:36:06.404Z,31.17
2016-07-04T12:37:06.437Z,31.24
2016-07-04T12:38:06.477Z,31.34
2016-07-04T12:39:06.734Z,31.28
2016-07-04T12:40:06.533Z,31.46
2016-07-04T12:41:06.578Z,31.52
2016-07-04T12:42:07.224Z,31.61
2016-07-04T12:43:06.631Z,31.64
2016-07-04T12:44:06.686Z,31.66
2016-07-04T12:45:06.707Z,31.73
2016-07-04T12:46:06.801Z,31.84
2016-07-04T12:47:06.967Z,31.93
2016-07-04T12:48:06.983Z,31.92
2016-07-04T12:49:06.996Z,32.01
2016-07-04T12:50:07.005Z,32.01
2016-07-04T12:51:06.898Z,32.07
2016-07-04T12:52:06.933Z,32.11
2016-07-04T12:53:06.965Z,32.18
2016-07-04T12:54:06.991Z,32.23
2016-07-04T12:55:07.028Z,32.31
2016-07-04T12:56:07.059Z,32.4
2016-07-04T12:57:07.736Z,32.45
2016-07-04T12:58:07.127Z,32.48
2016-07-04T12:59:07.165Z,32.59
2016-07-04T13:00:07.204Z,32.63
2016-07-04T13:01:07.222Z,32.75
2016-07-04T13:02:07.261Z,32.86
2016-07-04T13:03:07.291Z,33
2016-07-04T13:04:07.322Z,33.11
2016-07-04T13:05:07.353Z,33.17
2016-07-04T13:06:07.396Z,33.31
2016-07-04T13:07:07.441Z,33.31
2016-07-04T13:08:07.449Z,33.31
2016-07-04T13:09:07.496Z,33.36
2016-07-04T13:10:07.528Z,33.36
2016-07-04T13:11:08.165Z,33.4
2016-07-04T13:12:08.197Z,33.34
2016-07-04T13:13:07.622Z,33.43
2016-07-04T13:14:07.660Z,33.47
2016-07-04T13:15:07.771Z,33.5
2016-07-04T13:16:07.791Z,33.49
2016-07-04T13:17:07.823Z,33.45
2016-07-04T13:18:07.995Z,33.42
2016-07-04T13:19:08.006Z,33.42
2016-07-04T13:20:07.922Z,33.43
2016-07-04T13:21:08.055Z,33.47
2016-07-04T13:22:08.071Z,33.69
2016-07-04T13:23:08.089Z,33.74
2016-07-04T13:24:08.080Z,33.77
2016-07-04T13:25:08.095Z,33.92